Time;durP1;ratioP1;P1;durP2;ratioP2;P2;SDS_P1;SDS_P2;PMS_P1;PMS_P2;Temp;Humidity;BMP_temperature;BMP_pressure;BME280_temperature;BME280_humidity;BME280_pressure;Samples;Min_cycle;Max_cycle;Signal;HPM_P1;HPM_P2
2023/03/04 00:00:42;;;;;;;12.52;0.50;;;5.90;99.90;;;;;;5015269;28;20448;-76
2023/03/04 00:03:09;;;;;;;6.18;0.20;;;5.90;99.90;;;;;;5016527;28;20028;-77
2023/03/04 00:05:36;;;;;;;9.25;0.63;;;5.90;99.90;;;;;;5017044;28;20025;-77
2023/03/04 00:08:02;;;;;;;5.22;0.32;;;5.80;99.90;;;;;;5015087;28;20071;-77
2023/03/04 00:10:28;;;;;;;10.52;1.35;;;5.80;99.90;;;;;;5014921;28;20033;-76
2023/03/04 00:12:53;;;;;;;9.05;0.98;;;5.80;99.90;;;;;;5014879;28;20022;-77
2023/03/04 00:15:19;;;;;;;11.57;1.67;;;5.80;99.90;;;;;;5016209;28;20084;-77
2023/03/04 00:17:45;;;;;;;9.55;1.13;;;5.80;99.90;;;;;;5014965;28;20022;-77
2023/03/04 00:20:12;;;;;;;11.98;0.55;;;5.80;99.90;;;;;;5016102;28;20536;-77
2023/03/04 00:22:37;;;;;;;9.57;0.20;;;5.80;99.90;;;;;;5014567;28;20022;-77
2023/03/04 00:25:03;;;;;;;5.63;0.35;;;5.90;99.90;;;;;;5013325;28;20026;-76
2023/03/04 00:27:29;;;;;;;10.95;0.28;;;5.80;99.90;;;;;;5014715;28;20390;-77
2023/03/04 00:29:55;;;;;;;4.70;0.20;;;5.80;99.90;;;;;;5014727;28;20025;-76
2023/03/04 00:32:21;;;;;;;4.93;0.30;;;5.80;99.90;;;;;;5014461;28;20030;-76
2023/03/04 00:34:47;;;;;;;10.25;0.22;;;5.80;99.90;;;;;;5015876;28;20060;-77
2023/03/04 00:37:12;;;;;;;9.98;0.30;;;5.80;99.90;;;;;;5015899;28;20026;-77
2023/03/04 00:39:38;;;;;;;9.82;0.40;;;5.80;99.90;;;;;;5016272;28;20030;-77
2023/03/04 00:42:04;;;;;;;4.18;0.47;;;5.80;99.90;;;;;;5015625;28;20500;-77
2023/03/04 00:44:29;;;;;;;6.97;0.57;;;5.80;99.90;;;;;;5015616;28;20393;-76
2023/03/04 00:46:55;;;;;;;6.97;0.45;;;5.80;99.90;;;;;;5015662;28;20501;-77
2023/03/04 00:49:21;;;;;;;7.70;0.13;;;5.90;99.90;;;;;;5014375;28;20018;-77
2023/03/04 00:51:46;;;;;;;6.25;0.82;;;5.90;99.90;;;;;;5014154;28;20021;-76
2023/03/04 00:54:12;;;;;;;7.82;0.15;;;5.80;99.90;;;;;;5016088;28;20030;-77
2023/03/04 00:56:38;;;;;;;3.45;0.10;;;5.80;99.90;;;;;;5014257;28;20029;-77
2023/03/04 00:59:03;;;;;;;10.80;0.88;;;5.80;99.90;;;;;;5014103;28;20033;-76
2023/03/04 01:01:29;;;;;;;9.27;0.22;;;5.80;99.90;;;;;;5014156;28;20029;-76
2023/03/04 01:03:54;;;;;;;8.15;0.63;;;5.80;99.90;;;;;;5013881;28;20022;-77
2023/03/04 01:06:20;;;;;;;12.10;0.82;;;5.80;99.90;;;;;;5015806;28;20372;-77
2023/03/04 01:08:46;;;;;;;11.25;0.28;;;5.80;99.90;;;;;;5013870;28;20026;-77
2023/03/04 01:11:11;;;;;;;7.13;0.10;;;5.80;99.90;;;;;;5015299;28;20128;-76
2023/03/04 01:13:37;;;;;;;14.23;0.50;;;5.80;99.90;;;;;;5013790;28;20543;-76
2023/03/04 01:16:03;;;;;;;12.82;0.85;;;5.80;99.90;;;;;;5013826;28;20053;-76
2023/03/04 01:18:29;;;;;;;7.10;0.68;;;5.80;99.90;;;;;;5015044;28;20079;-77
2023/03/04 01:20:55;;;;;;;4.05;0.73;;;5.80;99.90;;;;;;5013487;28;20117;-77
2023/03/04 01:23:21;;;;;;;10.65;1.15;;;5.80;99.90;;;;;;5013620;28;20481;-76
2023/03/04 01:25:46;;;;;;;7.25;0.13;;;5.80;99.90;;;;;;5014964;28;20145;-76
2023/03/04 01:28:12;;;;;;;4.68;0.00;;;5.80;99.90;;;;;;5014758;28;20028;-76
2023/03/04 01:30:38;;;;;;;5.85;0.00;;;5.70;99.90;;;;;;5013615;28;20363;-77
2023/03/04 01:33:03;;;;;;;4.65;0.10;;;5.80;99.90;;;;;;5013388;28;20029;-77
2023/03/04 01:35:29;;;;;;;6.03;0.25;;;5.80;99.90;;;;;;5013030;28;20025;-77
2023/03/04 01:37:54;;;;;;;12.27;0.25;;;5.80;99.90;;;;;;5014634;28;20014;-77
2023/03/04 01:40:20;;;;;;;7.28;0.30;;;5.80;99.90;;;;;;5013372;28;20060;-76
2023/03/04 01:42:45;;;;;;;10.88;0.65;;;5.80;99.90;;;;;;5013214;28;20025;-77
2023/03/04 01:45:17;;;;;;;8.95;0.38;;;6.80;99.90;;;;;;5013275;28;20022;-76
2023/03/04 01:47:47;;;;;;;7.40;0.22;;;5.80;99.90;;;;;;5014497;28;20486;-76
2023/03/04 01:50:22;;;;;;;8.73;0.10;;;5.80;99.90;;;;;;5013176;28;20025;-76
2023/03/04 01:52:48;;;;;;;6.07;0.45;;;5.80;99.90;;;;;;5013085;28;20494;-76
2023/03/04 01:55:19;;;;;;;3.15;0.10;;;5.80;99.90;;;;;;5013085;28;20033;-77
2023/03/04 01:57:47;;;;;;;4.57;0.20;;;5.80;99.90;;;;;;5014343;28;20375;-77
2023/03/04 02:00:30;;;;;;;7.40;1.00;;;5.80;99.90;;;;;;5013105;28;20037;-77
2023/03/04 02:03:00;;;;;;;4.70;0.25;;;5.80;99.90;;;;;;5013649;28;20022;-76
2023/03/04 02:05:26;;;;;;;10.68;0.73;;;5.80;99.90;;;;;;5012973;28;20018;-77
2023/03/04 02:07:54;;;;;;;4.70;0.25;;;5.70;99.90;;;;;;5012959;28;20014;-76
2023/03/04 02:10:20;;;;;;;5.35;0.03;;;5.70;99.90;;;;;;5014257;28;20026;-77
2023/03/04 02:12:46;;;;;;;11.60;0.40;;;5.70;99.90;;;;;;5012781;28;20044;-77
2023/03/04 02:15:12;;;;;;;8.60;0.63;;;5.70;99.90;;;;;;5014313;28;20029;-77
2023/03/04 02:17:37;;;;;;;5.70;0.65;;;5.60;99.90;;;;;;5012705;28;20014;-77
2023/03/04 02:20:06;;;;;;;6.40;0.47;;;5.60;99.90;;;;;;5013902;28;20168;-77
2023/03/04 02:22:36;;;;;;;;;;;5.60;99.90;;;;;;5014914;28;20373;-76
2023/03/04 02:25:17;;;;;;;8.57;0.20;;;5.60;99.90;;;;;;5012532;28;20291;-76
2023/03/04 02:27:43;;;;;;;8.95;0.05;;;5.70;99.90;;;;;;5013867;28;20112;-76
2023/03/04 02:30:10;;;;;;;6.95;0.65;;;5.70;99.90;;;;;;5013790;28;20457;-77
2023/03/04 02:32:36;;;;;;;6.43;0.50;;;5.60;99.90;;;;;;5012489;28;20029;-77
2023/03/04 02:35:02;;;;;;;6.63;0.40;;;5.80;99.90;;;;;;5012504;28;20459;-77
2023/03/04 02:37:27;;;;;;;3.30;0.10;;;5.70;99.90;;;;;;5012392;28;20053;-77
2023/03/04 02:39:53;;;;;;;5.75;0.28;;;5.70;99.90;;;;;;5013823;28;20105;-77
2023/03/04 02:42:19;;;;;;;6.80;0.38;;;5.70;99.90;;;;;;5012257;28;20022;-77
2023/03/04 02:44:48;;;;;;;9.10;0.10;;;5.70;99.90;;;;;;5012323;28;20069;-77
2023/03/04 02:47:16;;;;;;;;;;;5.70;99.90;;;;;;5013594;28;20022;-77
2023/03/04 02:49:42;;;;;;;11.43;0.13;;;5.70;99.90;;;;;;5012537;28;19906;-77
2023/03/04 02:52:11;;;;;;;9.60;0.70;;;5.60;99.90;;;;;;5012120;28;20068;-77
2023/03/04 02:54:37;;;;;;;9.05;0.20;;;5.60;99.90;;;;;;5012304;28;20026;-77
2023/03/04 02:57:06;;;;;;;7.25;0.70;;;5.70;99.90;;;;;;5012129;28;20444;-77
2023/03/04 02:59:31;;;;;;;5.80;1.08;;;5.60;99.90;;;;;;5012693;28;20489;-77
2023/03/04 03:01:57;;;;;;;2.85;0.65;;;5.60;99.90;;;;;;5012025;28;20021;-77
2023/03/04 03:04:24;;;;;;;7.57;0.43;;;5.60;99.90;;;;;;5013271;28;20432;-77
2023/03/04 03:06:50;;;;;;;5.60;0.40;;;5.60;99.90;;;;;;5012117;28;20030;-77
2023/03/04 03:09:16;;;;;;;9.23;1.00;;;5.60;99.90;;;;;;5013417;28;20109;-77
2023/03/04 03:11:42;;;;;;;9.57;0.20;;;5.60;99.90;;;;;;5013109;28;20030;-77
2023/03/04 03:14:08;;;;;;;7.32;0.43;;;5.50;99.90;;;;;;5012084;28;20045;-76
2023/03/04 03:16:34;;;;;;;18.42;2.65;;;5.50;99.90;;;;;;5013241;28;20026;-76
2023/03/04 03:19:00;;;;;;;2.03;0.00;;;5.60;99.90;;;;;;5012068;28;20029;-76
2023/03/04 03:21:25;;;;;;;6.85;0.10;;;5.60;99.90;;;;;;5011956;28;20097;-77
2023/03/04 03:23:51;;;;;;;11.00;0.57;;;5.50;99.90;;;;;;5011944;28;20029;-77
2023/03/04 03:26:18;;;;;;;6.72;1.58;;;5.50;99.90;;;;;;5011927;28;20029;-77
2023/03/04 03:28:43;;;;;;;5.50;0.47;;;5.60;99.90;;;;;;5013177;28;20037;-76
2023/03/04 03:31:09;;;;;;;2.50;0.00;;;5.60;99.90;;;;;;5012030;28;20022;-76
2023/03/04 03:33:35;;;;;;;7.80;0.50;;;5.60;99.90;;;;;;5013068;28;20077;-77
2023/03/04 03:36:01;;;;;;;9.43;0.00;;;5.60;99.90;;;;;;5013569;28;20029;-76
2023/03/04 03:38:26;;;;;;;5.05;0.17;;;5.60;99.90;;;;;;5011910;28;20037;-77
2023/03/04 03:40:52;;;;;;;4.78;0.30;;;5.60;99.90;;;;;;5013010;28;20504;-77
2023/03/04 03:43:18;;;;;;;5.47;0.00;;;5.60;99.90;;;;;;5013048;28;20105;-77
2023/03/04 03:45:44;;;;;;;7.90;0.20;;;5.60;99.90;;;;;;5011754;28;20366;-77
2023/03/04 03:48:09;;;;;;;9.13;1.38;;;5.60;99.90;;;;;;5013100;28;20029;-76
2023/03/04 03:50:35;;;;;;;4.35;0.20;;;5.60;99.90;;;;;;5011758;28;20164;-77
2023/03/04 03:53:03;;;;;;;7.35;0.17;;;5.70;99.90;;;;;;5012913;28;20018;-77
2023/03/04 03:55:28;;;;;;;12.45;1.17;;;5.70;99.90;;;;;;5011700;28;20026;-77
2023/03/04 03:57:54;;;;;;;11.32;0.80;;;5.70;99.90;;;;;;5011662;28;20036;-76
2023/03/04 04:00:20;;;;;;;13.13;0.28;;;5.70;99.90;;;;;;5015131;28;20030;-76
2023/03/04 04:02:45;;;;;;;4.38;0.15;;;5.60;99.90;;;;;;5015781;28;20030;-76
2023/03/04 04:05:11;;;;;;;7.68;0.00;;;5.60;99.90;;;;;;5015213;28;20549;-76
2023/03/04 04:07:37;;;;;;;4.97;0.82;;;5.60;99.90;;;;;;5015128;28;20026;-77
2023/03/04 04:10:04;;;;;;;6.55;0.30;;;5.60;99.90;;;;;;5015076;28;20022;-77
2023/03/04 04:12:31;;;;;;;9.45;0.95;;;5.50;99.90;;;;;;5015002;28;20031;-77
2023/03/04 04:14:56;;;;;;;7.57;0.38;;;5.50;99.90;;;;;;5015023;28;20454;-77
2023/03/04 04:17:22;;;;;;;3.58;0.15;;;5.50;99.90;;;;;;5014917;28;20053;-77
2023/03/04 04:19:47;;;;;;;6.53;0.52;;;5.50;99.90;;;;;;5014890;28;20389;-77
2023/03/04 04:22:16;;;;;;;8.25;0.65;;;5.50;99.90;;;;;;5014863;28;20121;-77
2023/03/04 04:24:41;;;;;;;6.15;0.00;;;5.50;99.90;;;;;;5016238;28;20025;-77
2023/03/04 04:27:07;;;;;;;6.28;0.45;;;5.50;99.90;;;;;;5016007;28;20026;-77
2023/03/04 04:29:33;;;;;;;10.75;0.00;;;5.50;99.90;;;;;;5015933;28;20022;-77
2023/03/04 04:31:58;;;;;;;7.35;0.10;;;5.50;99.90;;;;;;5014605;28;20026;-77
2023/03/04 04:34:27;;;;;;;5.00;0.00;;;5.60;99.90;;;;;;5014579;28;20485;-76
2023/03/04 04:36:53;;;;;;;4.20;0.00;;;5.50;99.90;;;;;;5015736;28;20026;-76
2023/03/04 04:39:19;;;;;;;5.57;0.10;;;5.50;99.90;;;;;;5014500;28;20084;-77
2023/03/04 04:41:45;;;;;;;4.68;0.57;;;5.40;99.90;;;;;;5015715;28;20029;-77
2023/03/04 04:44:14;;;;;;;7.05;0.30;;;5.40;99.90;;;;;;5014245;28;20116;-77
2023/03/04 04:46:40;;;;;;;5.75;0.20;;;5.40;99.90;;;;;;5014430;28;20030;-77
2023/03/04 04:49:06;;;;;;;4.18;0.30;;;5.40;99.90;;;;;;5014449;28;20076;-76
2023/03/04 04:51:33;;;;;;;7.00;0.90;;;5.40;99.90;;;;;;5014506;28;20076;-76
2023/03/04 04:53:59;;;;;;;8.30;0.30;;;5.40;99.90;;;;;;5015503;28;20504;-77
2023/03/04 04:56:28;;;;;;;5.80;0.00;;;5.40;99.90;;;;;;5014255;28;20148;-77
2023/03/04 04:58:56;;;;;;;5.22;0.00;;;5.40;99.90;;;;;;5014224;28;20021;-77
2023/03/04 05:01:22;;;;;;;7.18;0.35;;;5.40;99.90;;;;;;5014078;28;20083;-77
2023/03/04 05:03:49;;;;;;;4.65;0.70;;;5.40;99.90;;;;;;5015254;28;20116;-77
2023/03/04 05:06:15;;;;;;;6.32;0.00;;;5.30;99.90;;;;;;5013957;28;20021;-77
2023/03/04 05:08:41;;;;;;;8.27;0.08;;;5.30;99.90;;;;;;5014028;28;20026;-77
2023/03/04 05:11:08;;;;;;;4.05;0.00;;;5.30;99.90;;;;;;5014641;28;20173;-77
2023/03/04 05:13:34;;;;;;;5.47;0.10;;;5.30;99.90;;;;;;5015636;28;20112;-77
2023/03/04 05:16:01;;;;;;;9.95;0.20;;;5.30;99.90;;;;;;5015046;28;20508;-77
2023/03/04 05:18:26;;;;;;;3.22;0.10;;;5.30;99.90;;;;;;5014083;28;20477;-77
2023/03/04 05:20:55;;;;;;;6.22;0.43;;;5.20;99.90;;;;;;5013746;28;20021;-76
2023/03/04 05:23:21;;;;;;;3.67;0.30;;;5.20;99.90;;;;;;5014905;28;20568;-77
2023/03/04 05:25:46;;;;;;;5.35;0.40;;;5.20;99.90;;;;;;5013507;28;20265;-77
2023/03/04 05:28:13;;;;;;;4.13;0.60;;;5.30;99.90;;;;;;5014854;28;20021;-77
2023/03/04 05:30:39;;;;;;;7.30;0.40;;;5.20;99.90;;;;;;5014974;28;20033;-77
2023/03/04 05:33:07;;;;;;;5.00;0.57;;;5.20;99.90;;;;;;5013395;28;20077;-77
2023/03/04 05:35:34;;;;;;;8.73;0.47;;;5.30;99.90;;;;;;5014943;28;20037;-76
2023/03/04 05:37:59;;;;;;;4.63;0.40;;;5.30;99.90;;;;;;5013461;28;20018;-76
2023/03/04 05:40:25;;;;;;;1.48;0.00;;;5.30;99.90;;;;;;5013287;28;20366;-77
2023/03/04 05:42:51;;;;;;;5.78;0.52;;;5.30;99.90;;;;;;5015072;28;20033;-76
2023/03/04 05:45:17;;;;;;;4.75;0.00;;;5.40;99.90;;;;;;5014366;28;20030;-77
2023/03/04 05:47:43;;;;;;;7.82;0.80;;;5.40;99.90;;;;;;5014525;28;20385;-77
2023/03/04 05:50:09;;;;;;;5.93;0.35;;;5.30;99.90;;;;;;5013208;28;20024;-76
2023/03/04 05:52:34;;;;;;;5.53;0.30;;;5.30;99.90;;;;;;5013058;28;20030;-76
2023/03/04 05:55:00;;;;;;;4.47;0.10;;;5.20;99.90;;;;;;5014384;28;20485;-76
2023/03/04 05:57:25;;;;;;;3.08;0.35;;;5.20;99.90;;;;;;5013090;28;20061;-76
2023/03/04 05:59:51;;;;;;;8.15;0.00;;;5.20;99.90;;;;;;5014482;28;20021;-77
2023/03/04 06:02:17;;;;;;;7.10;0.47;;;5.20;99.90;;;;;;5014300;28;20096;-77
2023/03/04 06:04:42;;;;;;;11.23;0.05;;;5.20;99.90;;;;;;5014249;28;20049;-77
2023/03/04 06:07:08;;;;;;;8.40;0.65;;;5.20;99.90;;;;;;5014316;28;20025;-77
2023/03/04 06:09:33;;;;;;;7.95;0.20;;;5.20;99.90;;;;;;5012941;28;20370;-77
2023/03/04 06:11:59;;;;;;;3.15;0.28;;;5.20;99.90;;;;;;5014082;28;20080;-77
2023/03/04 06:14:24;;;;;;;6.40;0.28;;;5.20;99.90;;;;;;5012895;28;20022;-76
2023/03/04 06:16:50;;;;;;;6.10;0.32;;;5.20;99.90;;;;;;5012746;28;20029;-77
2023/03/04 06:19:15;;;;;;;6.03;0.93;;;5.20;99.90;;;;;;5012838;28;20022;-77
2023/03/04 06:21:41;;;;;;;6.38;0.50;;;5.20;99.90;;;;;;5014254;28;20025;-77
2023/03/04 06:24:06;;;;;;;7.68;0.00;;;5.20;99.90;;;;;;5012615;28;20381;-77
2023/03/04 06:26:32;;;;;;;13.15;0.52;;;5.20;99.90;;;;;;5013899;28;20045;-77
2023/03/04 06:28:58;;;;;;;7.25;0.00;;;5.20;99.90;;;;;;5012645;28;20385;-77
2023/03/04 06:31:23;;;;;;;1.95;0.43;;;5.20;99.90;;;;;;5013826;28;20558;-77
2023/03/04 06:33:49;;;;;;;5.03;0.45;;;5.20;99.90;;;;;;5013723;28;20457;-76
2023/03/04 06:36:14;;;;;;;3.00;0.13;;;5.70;99.90;;;;;;5012507;28;20509;-77
2023/03/04 06:38:40;;;;;;;5.65;0.13;;;5.20;99.90;;;;;;5013758;28;20033;-77
2023/03/04 06:41:08;;;;;;;2.90;0.13;;;5.20;99.90;;;;;;5012390;28;20049;-77
2023/03/04 06:43:34;;;;;;;9.63;0.43;;;5.20;99.90;;;;;;5013689;28;20112;-77
2023/03/04 06:45:59;;;;;;;6.90;0.10;;;5.20;99.90;;;;;;5012487;28;20029;-76
2023/03/04 06:48:26;;;;;;;9.88;0.30;;;5.20;99.90;;;;;;5012466;28;20018;-77
2023/03/04 06:50:51;;;;;;;6.28;0.50;;;5.20;99.90;;;;;;5012330;28;20029;-77
2023/03/04 06:53:17;;;;;;;1.85;0.32;;;5.20;99.90;;;;;;5013651;28;20033;-77
2023/03/04 06:55:42;;;;;;;5.53;0.00;;;5.20;99.90;;;;;;5013537;28;20038;-77
2023/03/04 06:58:08;;;;;;;8.20;1.15;;;5.20;99.90;;;;;;5013551;28;20018;-77
2023/03/04 07:00:33;;;;;;;9.68;0.80;;;5.20;99.90;;;;;;5012265;28;20025;-76
2023/03/04 07:02:59;;;;;;;8.45;1.00;;;5.20;99.90;;;;;;5012230;28;20030;-77
2023/03/04 07:05:25;;;;;;;4.68;0.20;;;5.20;99.90;;;;;;5013429;28;20048;-76
2023/03/04 07:07:51;;;;;;;4.88;0.45;;;5.20;99.90;;;;;;5013454;28;20485;-77
2023/03/04 07:10:18;;;;;;;4.32;0.10;;;5.20;99.90;;;;;;5012171;28;20024;-77
2023/03/04 07:12:43;;;;;;;1.90;0.10;;;5.20;99.90;;;;;;5013288;28;20073;-77
2023/03/04 07:15:09;;;;;;;6.13;0.00;;;5.30;99.90;;;;;;5012009;28;20057;-77
2023/03/04 07:17:35;;;;;;;2.05;0.00;;;5.30;99.90;;;;;;5013345;28;20029;-77
2023/03/04 07:20:00;;;;;;;1.27;0.00;;;5.30;99.90;;;;;;5012016;28;20064;-77
2023/03/04 07:22:26;;;;;;;1.50;0.00;;;5.30;99.90;;;;;;5013237;28;20025;-77
2023/03/04 07:24:54;;;;;;;3.67;0.00;;;5.30;99.90;;;;;;5013193;28;20076;-77
2023/03/04 07:27:20;;;;;;;2.63;0.00;;;5.30;99.90;;;;;;5013434;28;20026;-77
2023/03/04 07:29:45;;;;;;;4.65;0.00;;;5.30;99.90;;;;;;5011957;28;20507;-77
2023/03/04 07:32:11;;;;;;;2.17;0.28;;;5.50;99.90;;;;;;5011915;28;20359;-77
2023/03/04 07:34:37;;;;;;;1.65;0.38;;;5.50;99.90;;;;;;5014465;28;20486;-77
2023/03/04 07:37:02;;;;;;;3.92;0.10;;;5.60;99.90;;;;;;5015716;28;20041;-76
2023/03/04 07:39:30;;;;;;;4.13;0.30;;;5.70;99.90;;;;;;5015684;28;20025;-77
2023/03/04 07:41:56;;;;;;;4.50;0.45;;;5.80;99.90;;;;;;5015542;28;20021;-76
2023/03/04 07:44:25;;;;;;;4.20;0.00;;;5.80;99.90;;;;;;5016757;28;20033;-76
2023/03/04 07:46:50;;;;;;;4.55;0.45;;;5.90;99.90;;;;;;5015617;28;20026;-76
2023/03/04 07:49:16;;;;;;;3.72;0.17;;;6.00;99.90;;;;;;5015636;28;20022;-77
2023/03/04 07:51:41;;;;;;;2.58;0.10;;;6.00;99.90;;;;;;5016739;28;20065;-77
2023/03/04 07:54:08;;;;;;;3.30;0.10;;;6.00;99.90;;;;;;5015455;28;20083;-77
2023/03/04 07:56:33;;;;;;;1.38;0.08;;;6.10;99.90;;;;;;5015416;28;20041;-77
2023/03/04 07:59:00;;;;;;;1.38;0.00;;;6.10;99.90;;;;;;5016563;28;20389;-76
2023/03/04 08:01:29;;;;;;;0.38;0.00;;;6.40;99.90;;;;;;5015293;28;20108;-76
2023/03/04 08:03:55;;;;;;;1.80;0.40;;;6.30;99.90;;;;;;5015235;28;20073;-77
2023/03/04 08:06:22;;;;;;;2.58;0.00;;;6.30;99.90;;;;;;5016407;28;20503;-77
2023/03/04 08:08:48;;;;;;;4.88;0.57;;;6.30;99.90;;;;;;5015199;28;20478;-77
2023/03/04 08:11:19;;;;;;;0.95;0.00;;;6.40;99.90;;;;;;5016416;28;20026;-77
2023/03/04 08:13:46;;;;;;;12.05;0.57;;;6.50;99.90;;;;;;5015106;28;20129;-77
2023/03/04 08:16:14;;;;;;;4.28;0.00;;;6.50;99.90;;;;;;5016407;28;20038;-77
2023/03/04 08:18:41;;;;;;;1.85;0.00;;;6.60;99.90;;;;;;5016339;28;20030;-77
2023/03/04 08:21:09;;;;;;;1.33;0.00;;;6.60;99.90;;;;;;5014940;28;20057;-77
2023/03/04 08:23:35;;;;;;;0.95;0.00;;;6.70;99.90;;;;;;5016200;28;20092;-77
2023/03/04 08:26:06;;;;;;;4.00;0.35;;;6.80;99.90;;;;;;5014903;28;20025;-77
2023/03/04 08:28:31;;;;;;;1.23;0.20;;;6.80;99.90;;;;;;5014846;28;20021;-77
2023/03/04 08:30:57;;;;;;;1.92;0.10;;;6.90;99.90;;;;;;5014961;28;20473;-77
2023/03/04 08:33:22;;;;;;;0.85;0.28;;;6.90;99.90;;;;;;5016106;28;20026;-77
2023/03/04 08:35:48;;;;;;;2.45;0.00;;;6.90;99.90;;;;;;5015358;28;20022;-77
2023/03/04 08:38:14;;;;;;;6.72;1.02;;;7.00;99.90;;;;;;5015869;28;20034;-77
2023/03/04 08:40:39;;;;;;;1.73;0.00;;;7.10;99.90;;;;;;5014498;28;20023;-77
2023/03/04 08:43:05;;;;;;;2.55;0.00;;;7.20;99.90;;;;;;5014484;28;20506;-77
2023/03/04 08:45:30;;;;;;;1.00;0.08;;;7.30;99.90;;;;;;5014773;28;20022;-77
2023/03/04 08:47:56;;;;;;;0.98;0.00;;;7.30;99.90;;;;;;5014509;28;20022;-77
2023/03/04 08:50:22;;;;;;;2.17;0.10;;;7.50;99.90;;;;;;5015722;28;20032;-76
2023/03/04 08:52:47;;;;;;;6.82;0.40;;;7.60;99.90;;;;;;5016051;28;20029;-77
2023/03/04 08:55:13;;;;;;;2.60;0.00;;;7.70;99.90;;;;;;5014530;28;20100;-77
2023/03/04 08:57:38;;;;;;;1.70;0.00;;;7.80;99.90;;;;;;5015735;28;20053;-76
2023/03/04 09:00:05;;;;;;;3.63;0.00;;;7.70;99.90;;;;;;5014219;28;20551;-77
2023/03/04 09:02:30;;;;;;;2.85;0.00;;;7.70;99.90;;;;;;5015547;28;20084;-77
2023/03/04 09:04:56;;;;;;;2.95;0.52;;;7.70;99.90;;;;;;5013981;28;20026;-77
2023/03/04 09:07:21;;;;;;;1.77;0.00;;;7.70;99.90;;;;;;5015424;28;20026;-77
2023/03/04 09:09:47;;;;;;;1.15;0.00;;;7.60;99.90;;;;;;5014059;28;20010;-77
2023/03/04 09:12:12;;;;;;;4.38;0.57;;;7.60;99.90;;;;;;5014048;28;20021;-77
2023/03/04 09:14:38;;;;;;;3.65;0.10;;;7.50;99.90;;;;;;5013933;28;20026;-77
2023/03/04 09:17:04;;;;;;;1.52;0.00;;;7.50;99.90;;;;;;5013966;28;20022;-77
2023/03/04 09:19:30;;;;;;;3.40;0.10;;;7.50;99.90;;;;;;5015173;28;20498;-77
2023/03/04 09:21:58;;;;;;;1.75;0.00;;;7.40;99.90;;;;;;5013761;28;20030;-77
2023/03/04 09:24:24;;;;;;;1.50;0.00;;;7.30;99.90;;;;;;5015161;28;20017;-77
2023/03/04 09:26:51;;;;;;;2.50;0.03;;;7.30;99.90;;;;;;5015301;28;20030;-77
2023/03/04 09:29:17;;;;;;;0.38;0.00;;;7.30;99.90;;;;;;5015073;28;20026;-77
2023/03/04 09:31:42;;;;;;;0.45;0.00;;;7.30;99.90;;;;;;5015451;28;20081;-77
2023/03/04 09:34:08;;;;;;;0.57;0.00;;;7.20;99.90;;;;;;5014855;28;20061;-77
2023/03/04 09:36:34;;;;;;;10.10;0.17;;;7.20;99.90;;;;;;5014910;28;20367;-77
2023/03/04 09:39:03;;;;;;;0.55;0.00;;;7.20;99.90;;;;;;5014726;28;20030;-77
2023/03/04 09:41:51;;;;;;;2.45;0.00;;;7.20;99.90;;;;;;5013449;28;20053;-77
2023/03/04 09:44:35;;;;;;;5.43;0.20;;;7.40;99.90;;;;;;5014787;28;20072;-76
2023/03/04 09:47:05;;;;;;;0.75;0.00;;;7.30;99.90;;;;;;5014791;28;20033;-77
2023/03/04 09:49:31;;;;;;;0.43;0.00;;;7.40;99.90;;;;;;5013468;28;20374;-77
2023/03/04 09:52:16;;;;;;;1.20;0.00;;;7.60;99.90;;;;;;5014487;28;20076;-77
2023/03/04 09:54:48;;;;;;;2.00;0.00;;;7.90;99.90;;;;;;5014313;28;20046;-77
2023/03/04 09:57:36;;;;;;;2.97;0.00;;;8.00;99.90;;;;;;5012989;28;20075;-77
2023/03/04 10:00:18;;;;;;;2.83;0.00;;;8.10;99.90;;;;;;5014426;28;20017;-77
2023/03/04 10:03:02;;;;;;;1.55;0.43;;;8.10;99.90;;;;;;5014245;28;20116;-77
2023/03/04 10:05:29;;;;;;;3.92;0.40;;;8.00;99.90;;;;;;5014237;28;20374;-77
2023/03/04 10:07:59;;;;;;;5.18;1.10;;;7.90;99.90;;;;;;5012972;28;20429;-77
2023/03/04 10:10:32;;;;;;;2.53;0.00;;;7.90;99.90;;;;;;5014590;28;20107;-77
2023/03/04 10:12:59;;;;;;;1.75;0.20;;;7.90;99.90;;;;;;5012932;28;20429;-77
2023/03/04 10:15:31;;;;;;;6.60;0.28;;;8.00;99.90;;;;;;5012958;28;20398;-77
2023/03/04 10:18:05;;;;;;;0.10;0.00;;;8.10;99.90;;;;;;5013357;28;20029;-77
2023/03/04 10:20:45;;;;;;;4.75;0.47;;;8.30;99.90;;;;;;5014677;28;20381;-77
2023/03/04 10:23:17;;;;;;;1.85;0.57;;;8.60;99.90;;;;;;5012659;28;20040;-77
2023/03/04 10:25:52;;;;;;;1.38;0.10;;;8.80;99.90;;;;;;5014081;28;20096;-77
2023/03/04 10:28:25;;;;;;;2.63;0.20;;;9.00;99.90;;;;;;5013940;28;20072;-77
2023/03/04 10:30:56;;;;;;;2.15;0.17;;;8.90;99.90;;;;;;5014116;28;20098;-77
2023/03/04 10:33:26;;;;;;;0.22;0.00;;;8.90;99.90;;;;;;5013924;28;20052;-77
2023/03/04 10:36:03;;;;;;;0.98;0.00;;;8.70;99.90;;;;;;5012769;28;20417;-77
2023/03/04 10:38:33;;;;;;;1.55;0.00;;;8.50;99.90;;;;;;5012557;28;20036;-77
2023/03/04 10:40:59;;;;;;;4.05;0.00;;;8.50;99.90;;;;;;5012517;28;20025;-77
2023/03/04 10:43:24;;;;;;;1.88;0.00;;;8.50;99.90;;;;;;5013690;28;20393;-77
2023/03/04 10:45:56;;;;;;;2.17;0.00;;;8.60;99.90;;;;;;5012545;28;20489;-77
2023/03/04 10:48:25;;;;;;;0.95;0.00;;;8.60;99.90;;;;;;5013811;28;20486;-77
2023/03/04 10:50:51;;;;;;;0.77;0.25;;;8.60;99.90;;;;;;5012398;28;20033;-77
2023/03/04 10:53:41;;;;;;;7.63;0.25;;;8.50;99.90;;;;;;5012471;28;20038;-77
2023/03/04 10:56:37;;;;;;;1.27;0.00;;;8.40;99.90;;;;;;5005151;28;20188;-77
2023/03/04 10:59:29;;;;;;;4.47;0.10;;;8.40;99.90;;;;;;5013884;28;20029;-77
2023/03/04 11:01:55;;;;;;;1.67;0.10;;;8.30;99.90;;;;;;5013596;28;20105;-77
2023/03/04 11:04:26;;;;;;;1.92;0.00;;;8.30;99.90;;;;;;5013547;28;20057;-77
2023/03/04 11:06:52;;;;;;;1.90;0.00;;;8.30;99.90;;;;;;5012330;28;20022;-76
2023/03/04 11:09:24;;;;;;;0.25;0.00;;;8.40;99.90;;;;;;5014329;28;20037;-77
2023/03/04 11:11:51;;;;;;;1.48;0.00;;;8.60;99.90;;;;;;5017381;28;20038;-77
2023/03/04 11:14:29;;;;;;;0.10;0.00;;;8.80;99.90;;;;;;5017546;28;20029;-77
2023/03/04 11:17:14;;;;;;;0.93;0.17;;;9.00;99.90;;;;;;5016272;28;20045;-77
2023/03/04 11:19:43;;;;;;;1.35;0.00;;;9.30;99.90;;;;;;5015874;28;20124;-77
2023/03/04 11:22:15;;;;;;;0.63;0.50;;;9.30;99.90;;;;;;5016170;28;20065;-77
2023/03/04 11:24:42;;;;;;;1.42;0.00;;;9.10;99.90;;;;;;5015953;28;20079;-77
2023/03/04 11:27:28;;;;;;;1.50;0.00;;;9.00;99.90;;;;;;5016084;28;20112;-77
2023/03/04 11:30:02;;;;;;;0.68;0.00;;;8.80;99.90;;;;;;5016073;28;20030;-77
2023/03/04 11:32:38;;;;;;;1.05;0.00;;;8.60;99.90;;;;;;5017650;28;20021;-77
2023/03/04 11:35:14;;;;;;;0.00;0.00;;;8.40;99.90;;;;;;5015897;28;20033;-77
2023/03/04 11:38:00;;;;;;;0.40;0.00;;;8.10;99.90;;;;;;5017177;28;20036;-76
2023/03/04 11:40:43;;;;;;;0.80;0.05;;;7.90;99.90;;;;;;5017073;28;20084;-77
2023/03/04 11:43:15;;;;;;;0.85;0.00;;;7.80;99.90;;;;;;5015681;28;20025;-77
2023/03/04 11:45:58;;;;;;;2.85;0.00;;;7.80;99.90;;;;;;5017139;28;20053;-77
2023/03/04 11:48:44;;;;;;;5.75;1.55;;;7.80;99.90;;;;;;5016920;28;20022;-77
2023/03/04 11:51:53;;;;;;;0.93;0.10;;;7.90;99.90;;;;;;5017090;28;20026;-77
2023/03/04 11:54:31;;;;;;;2.85;0.00;;;8.00;99.90;;;;;;5016895;28;20030;-77
2023/03/04 11:57:02;;;;;;;4.30;0.00;;;8.10;99.90;;;;;;5015665;28;20026;-77
2023/03/04 11:59:50;;;;;;;1.95;0.20;;;8.40;99.90;;;;;;5015533;28;20032;-77
2023/03/04 12:02:50;;;;;;;2.00;0.00;;;8.60;99.90;;;;;;5015378;28;20397;-77
2023/03/04 12:05:31;;;;;;;2.63;0.20;;;8.90;99.90;;;;;;5011090;28;20041;-77
2023/03/04 12:08:19;;;;;;;6.18;0.10;;;9.20;99.90;;;;;;5015908;28;20049;-77
2023/03/04 12:10:55;;;;;;;0.75;0.00;;;9.30;99.90;;;;;;5016777;28;20085;-77
2023/03/04 12:13:59;;;;;;;3.40;0.20;;;9.30;99.90;;;;;;5016817;28;20038;-77
2023/03/04 12:16:51;;;;;;;2.78;0.20;;;9.20;99.90;;;;;;5015536;28;20041;-77
2023/03/04 12:19:25;;;;;;;2.60;0.22;;;9.00;99.90;;;;;;5014852;28;20058;-77
2023/03/04 12:21:54;;;;;;;5.05;0.00;;;8.70;99.90;;;;;;5015053;28;20061;-77
2023/03/04 12:24:39;;;;;;;4.07;0.30;;;8.40;99.90;;;;;;5016512;28;20026;-77
2023/03/04 12:27:31;;;;;;;3.15;0.00;;;8.10;99.90;;;;;;5016232;28;20389;-77
2023/03/04 12:30:24;;;;;;;6.25;0.75;;;8.00;99.90;;;;;;5014930;28;20018;-77
2023/03/04 12:33:08;;;;;;;6.60;0.15;;;7.90;99.90;;;;;;5015958;28;20026;-77
2023/03/04 12:35:52;;;;;;;3.42;0.00;;;7.80;99.90;;;;;;5016531;28;20533;-77
2023/03/04 12:38:40;;;;;;;5.50;0.32;;;7.70;99.90;;;;;;5016145;28;20034;-77
2023/03/04 12:41:41;;;;;;;2.60;0.00;;;7.70;99.90;;;;;;5016357;28;20021;-77
2023/03/04 12:44:16;;;;;;;1.83;0.00;;;7.80;99.90;;;;;;4994317;28;20038;-77
2023/03/04 12:46:41;;;;;;;8.90;0.52;;;7.90;99.90;;;;;;5016395;28;20046;-77
2023/03/04 12:49:46;;;;;;;4.15;0.00;;;8.20;99.90;;;;;;5014518;28;20501;-77
2023/03/04 12:52:28;;;;;;;8.20;0.10;;;8.40;99.90;;;;;;5014458;28;20018;-77
2023/03/04 12:55:03;;;;;;;6.10;0.32;;;8.50;99.90;;;;;;5016245;28;20379;-77
2023/03/04 12:57:30;;;;;;;3.63;0.40;;;8.60;99.90;;;;;;5016290;28;20152;-77
2023/03/04 13:00:20;;;;;;;7.80;0.13;;;8.60;99.90;;;;;;5015462;28;20076;-77
2023/03/04 13:02:54;;;;;;;2.10;0.00;;;8.60;99.90;;;;;;5015564;28;20030;-77
2023/03/04 13:05:39;;;;;;;10.73;0.00;;;8.60;99.90;;;;;;5015386;28;20547;-77
2023/03/04 13:08:11;;;;;;;9.70;0.10;;;8.90;99.90;;;;;;5015366;28;20500;-77